sensor_id;sensor_type;location;lat;lon;timestamp;temperature;humidity
24338;DHT22;12457;50.832;4.346;2023-03-01T00:01:47;1.60;99.90
24338;DHT22;12457;50.832;4.346;2023-03-01T00:04:12;1.50;99.90
24338;DHT22;12457;50.832;4.346;2023-03-01T00:06:38;1.50;99.90
24338;DHT22;12457;50.832;4.346;2023-03-01T00:09:04;1.40;99.90
24338;DHT22;12457;50.832;4.346;2023-03-01T00:11:30;1.30;99.90
24338;DHT22;12457;50.832;4.346;2023-03-01T00:13:57;1.30;99.90
24338;DHT22;12457;50.832;4.346;2023-03-01T00:16:25;1.30;99.90
24338;DHT22;12457;50.832;4.346;2023-03-01T00:19:03;1.30;99.90
24338;DHT22;12457;50.832;4.346;2023-03-01T00:21:29;1.20;99.90
24338;DHT22;12457;50.832;4.346;2023-03-01T00:23:55;1.20;99.90
24338;DHT22;12457;50.832;4.346;2023-03-01T00:26:21;1.20;99.90
24338;DHT22;12457;50.832;4.346;2023-03-01T00:28:47;1.10;99.90
24338;DHT22;12457;50.832;4.346;2023-03-01T00:31:14;1.10;99.90
24338;DHT22;12457;50.832;4.346;2023-03-01T00:33:40;1.10;99.90
24338;DHT22;12457;50.832;4.346;2023-03-01T00:36:06;1.10;99.90
24338;DHT22;12457;50.832;4.346;2023-03-01T00:38:36;1.10;99.90
24338;DHT22;12457;50.832;4.346;2023-03-01T00:41:05;1.10;99.90
24338;DHT22;12457;50.832;4.346;2023-03-01T00:43:31;1.10;99.90
24338;DHT22;12457;50.832;4.346;2023-03-01T00:46:05;1.10;99.90
24338;DHT22;12457;50.832;4.346;2023-03-01T00:48:31;1.20;99.90
24338;DHT22;12457;50.832;4.346;2023-03-01T00:50:57;1.10;99.90
24338;DHT22;12457;50.832;4.346;2023-03-01T00:53:22;1.10;99.90
24338;DHT22;12457;50.832;4.346;2023-03-01T00:55:48;1.10;99.90
24338;DHT22;12457;50.832;4.346;2023-03-01T00:58:13;1.20;99.90
24338;DHT22;12457;50.832;4.346;2023-03-01T01:00:39;1.10;99.90
24338;DHT22;12457;50.832;4.346;2023-03-01T01:03:04;1.20;99.90
24338;DHT22;12457;50.832;4.346;2023-03-01T01:05:30;1.10;99.90
24338;DHT22;12457;50.832;4.346;2023-03-01T01:07:56;1.10;99.90
24338;DHT22;12457;50.832;4.346;2023-03-01T01:10:21;1.10;99.90
24338;DHT22;12457;50.832;4.346;2023-03-01T01:12:47;1.10;99.90
24338;DHT22;12457;50.832;4.346;2023-03-01T01:15:12;1.00;99.90
24338;DHT22;12457;50.832;4.346;2023-03-01T01:17:39;1.00;99.90
24338;DHT22;12457;50.832;4.346;2023-03-01T01:20:05;1.00;99.90
24338;DHT22;12457;50.832;4.346;2023-03-01T01:22:31;1.00;99.90
24338;DHT22;12457;50.832;4.346;2023-03-01T01:24:56;1.00;99.90
24338;DHT22;12457;50.832;4.346;2023-03-01T01:27:22;0.90;99.90
24338;DHT22;12457;50.832;4.346;2023-03-01T01:29:47;0.90;99.90
24338;DHT22;12457;50.832;4.346;2023-03-01T01:32:13;0.90;99.90
24338;DHT22;12457;50.832;4.346;2023-03-01T01:34:38;0.90;99.90
24338;DHT22;12457;50.832;4.346;2023-03-01T01:37:04;0.90;99.90
24338;DHT22;12457;50.832;4.346;2023-03-01T01:39:34;0.90;99.90
24338;DHT22;12457;50.832;4.346;2023-03-01T01:41:59;0.90;99.90
24338;DHT22;12457;50.832;4.346;2023-03-01T01:44:26;0.90;99.90
24338;DHT22;12457;50.832;4.346;2023-03-01T01:52:27;0.80;99.90
24338;DHT22;12457;50.832;4.346;2023-03-01T01:55:11;0.80;99.90
24338;DHT22;12457;50.832;4.346;2023-03-01T01:57:41;0.80;99.90
24338;DHT22;12457;50.832;4.346;2023-03-01T02:00:10;0.70;99.90
24338;DHT22;12457;50.832;4.346;2023-03-01T02:02:37;0.70;99.90
24338;DHT22;12457;50.832;4.346;2023-03-01T02:05:09;0.70;99.90
24338;DHT22;12457;50.832;4.346;2023-03-01T02:07:37;0.60;99.90
24338;DHT22;12457;50.832;4.346;2023-03-01T02:10:04;0.60;99.90
24338;DHT22;12457;50.832;4.346;2023-03-01T02:12:29;0.70;99.90
24338;DHT22;12457;50.832;4.346;2023-03-01T02:14:55;0.60;99.90
24338;DHT22;12457;50.832;4.346;2023-03-01T02:17:21;0.50;99.90
24338;DHT22;12457;50.832;4.346;2023-03-01T02:20:09;0.50;99.90
24338;DHT22;12457;50.832;4.346;2023-03-01T02:22:39;0.60;99.90
24338;DHT22;12457;50.832;4.346;2023-03-01T02:27:39;0.50;99.90
24338;DHT22;12457;50.832;4.346;2023-03-01T02:30:06;0.50;99.90
24338;DHT22;12457;50.832;4.346;2023-03-01T02:32:33;0.50;99.90
24338;DHT22;12457;50.832;4.346;2023-03-01T02:34:59;0.50;99.90
24338;DHT22;12457;50.832;4.346;2023-03-01T02:37:25;0.50;99.90
24338;DHT22;12457;50.832;4.346;2023-03-01T02:39:53;0.40;99.90
24338;DHT22;12457;50.832;4.346;2023-03-01T02:42:23;0.40;99.90
24338;DHT22;12457;50.832;4.346;2023-03-01T02:44:51;0.40;99.90
24338;DHT22;12457;50.832;4.346;2023-03-01T02:47:17;0.40;99.90
24338;DHT22;12457;50.832;4.346;2023-03-01T02:49:42;0.30;99.90
24338;DHT22;12457;50.832;4.346;2023-03-01T02:52:21;0.30;99.90
24338;DHT22;12457;50.832;4.346;2023-03-01T02:54:51;0.30;99.90
24338;DHT22;12457;50.832;4.346;2023-03-01T02:57:18;0.30;99.90
24338;DHT22;12457;50.832;4.346;2023-03-01T02:59:44;0.30;99.90
24338;DHT22;12457;50.832;4.346;2023-03-01T03:05:02;0.30;99.90
24338;DHT22;12457;50.832;4.346;2023-03-01T03:07:27;0.20;99.90
24338;DHT22;12457;50.832;4.346;2023-03-01T03:09:53;0.20;99.90
24338;DHT22;12457;50.832;4.346;2023-03-01T03:12:18;0.20;99.90
24338;DHT22;12457;50.832;4.346;2023-03-01T03:14:44;0.20;99.90
24338;DHT22;12457;50.832;4.346;2023-03-01T03:17:09;0.20;99.90
24338;DHT22;12457;50.832;4.346;2023-03-01T03:19:35;0.20;99.90
24338;DHT22;12457;50.832;4.346;2023-03-01T03:22:00;0.20;99.90
24338;DHT22;12457;50.832;4.346;2023-03-01T03:24:27;0.20;99.90
24338;DHT22;12457;50.832;4.346;2023-03-01T03:26:53;0.30;99.90
24338;DHT22;12457;50.832;4.346;2023-03-01T03:29:19;0.20;99.90
24338;DHT22;12457;50.832;4.346;2023-03-01T03:31:45;0.10;99.90
24338;DHT22;12457;50.832;4.346;2023-03-01T03:34:10;0.10;99.90
24338;DHT22;12457;50.832;4.346;2023-03-01T03:36:43;0.10;99.90
24338;DHT22;12457;50.832;4.346;2023-03-01T03:39:08;0.10;99.90
24338;DHT22;12457;50.832;4.346;2023-03-01T03:41:34;0.10;99.90
24338;DHT22;12457;50.832;4.346;2023-03-01T03:44:00;0.10;99.90
24338;DHT22;12457;50.832;4.346;2023-03-01T03:46:25;0.00;99.90
24338;DHT22;12457;50.832;4.346;2023-03-01T03:48:51;0.00;99.90
24338;DHT22;12457;50.832;4.346;2023-03-01T03:51:17;0.00;99.90
24338;DHT22;12457;50.832;4.346;2023-03-01T03:53:43;0.00;99.90
24338;DHT22;12457;50.832;4.346;2023-03-01T03:56:08;0.00;99.90
24338;DHT22;12457;50.832;4.346;2023-03-01T03:58:34;-0.10;99.90
24338;DHT22;12457;50.832;4.346;2023-03-01T04:01:00;-0.20;99.90
24338;DHT22;12457;50.832;4.346;2023-03-01T04:03:26;-0.10;1.00
24338;DHT22;12457;50.832;4.346;2023-03-01T04:05:58;-0.10;99.90
24338;DHT22;12457;50.832;4.346;2023-03-01T04:08:24;-0.20;1.00
24338;DHT22;12457;50.832;4.346;2023-03-01T04:10:50;-0.20;1.00
24338;DHT22;12457;50.832;4.346;2023-03-01T04:13:18;-0.10;99.90
24338;DHT22;12457;50.832;4.346;2023-03-01T04:15:48;-0.20;99.90
24338;DHT22;12457;50.832;4.346;2023-03-01T04:18:14;-0.20;99.90
24338;DHT22;12457;50.832;4.346;2023-03-01T04:20:40;-0.30;1.00
24338;DHT22;12457;50.832;4.346;2023-03-01T04:25:39;-0.40;1.00
24338;DHT22;12457;50.832;4.346;2023-03-01T04:28:05;-0.40;1.00
24338;DHT22;12457;50.832;4.346;2023-03-01T04:30:30;-0.40;1.00
24338;DHT22;12457;50.832;4.346;2023-03-01T04:33:04;-0.50;1.00
24338;DHT22;12457;50.832;4.346;2023-03-01T04:35:30;-0.50;1.00
24338;DHT22;12457;50.832;4.346;2023-03-01T04:37:56;-0.50;1.40
24338;DHT22;12457;50.832;4.346;2023-03-01T04:40:22;-0.50;1.00
24338;DHT22;12457;50.832;4.346;2023-03-01T04:42:47;-0.50;2.60
24338;DHT22;12457;50.832;4.346;2023-03-01T04:45:13;-0.60;2.50
24338;DHT22;12457;50.832;4.346;2023-03-01T04:47:42;-0.50;4.40
24338;DHT22;12457;50.832;4.346;2023-03-01T04:50:12;-0.50;4.50
24338;DHT22;12457;50.832;4.346;2023-03-01T04:52:38;-0.60;6.10
24338;DHT22;12457;50.832;4.346;2023-03-01T04:55:03;-0.60;6.00
24338;DHT22;12457;50.832;4.346;2023-03-01T04:57:29;-0.60;7.80
24338;DHT22;12457;50.832;4.346;2023-03-01T04:59:55;-0.50;6.00
24338;DHT22;12457;50.832;4.346;2023-03-01T05:02:20;-0.60;5.00
24338;DHT22;12457;50.832;4.346;2023-03-01T05:04:46;-0.60;6.50
24338;DHT22;12457;50.832;4.346;2023-03-01T05:07:11;-0.60;7.20
24338;DHT22;12457;50.832;4.346;2023-03-01T05:09:38;-0.60;7.30
24338;DHT22;12457;50.832;4.346;2023-03-01T05:12:04;-0.60;9.40
24338;DHT22;12457;50.832;4.346;2023-03-01T05:14:29;-0.60;8.60
24338;DHT22;12457;50.832;4.346;2023-03-01T05:16:55;-0.60;9.40
24338;DHT22;12457;50.832;4.346;2023-03-01T05:19:29;-0.60;10.30
24338;DHT22;12457;50.832;4.346;2023-03-01T05:22:04;-0.70;11.80
24338;DHT22;12457;50.832;4.346;2023-03-01T05:24:30;-0.70;13.00
24338;DHT22;12457;50.832;4.346;2023-03-01T05:26:56;-0.70;14.30
24338;DHT22;12457;50.832;4.346;2023-03-01T05:29:23;-0.70;13.90
24338;DHT22;12457;50.832;4.346;2023-03-01T05:34:18;-0.70;15.00
24338;DHT22;12457;50.832;4.346;2023-03-01T05:36:44;-0.70;15.30
24338;DHT22;12457;50.832;4.346;2023-03-01T05:39:10;-0.80;16.60
24338;DHT22;12457;50.832;4.346;2023-03-01T05:41:37;-0.80;16.90
24338;DHT22;12457;50.832;4.346;2023-03-01T05:44:03;-0.70;18.60
24338;DHT22;12457;50.832;4.346;2023-03-01T05:46:30;-0.70;17.10
24338;DHT22;12457;50.832;4.346;2023-03-01T05:48:55;-0.80;18.40
24338;DHT22;12457;50.832;4.346;2023-03-01T05:51:21;-0.80;19.70
24338;DHT22;12457;50.832;4.346;2023-03-01T05:53:47;-0.80;21.10
24338;DHT22;12457;50.832;4.346;2023-03-01T05:56:13;-0.90;23.00
24338;DHT22;12457;50.832;4.346;2023-03-01T05:58:38;-0.80;24.60
24338;DHT22;12457;50.832;4.346;2023-03-01T06:01:04;-0.80;22.50
24338;DHT22;12457;50.832;4.346;2023-03-01T06:03:29;-0.90;22.30
24338;DHT22;12457;50.832;4.346;2023-03-01T06:05:55;-0.90;22.30
24338;DHT22;12457;50.832;4.346;2023-03-01T06:08:21;-0.90;24.50
24338;DHT22;12457;50.832;4.346;2023-03-01T06:10:47;-0.90;24.40
24338;DHT22;12457;50.832;4.346;2023-03-01T06:13:13;-0.90;25.20
24338;DHT22;12457;50.832;4.346;2023-03-01T06:15:38;-0.90;26.20
24338;DHT22;12457;50.832;4.346;2023-03-01T06:18:04;-0.80;25.40
24338;DHT22;12457;50.832;4.346;2023-03-01T06:20:32;-0.80;99.90
24338;DHT22;12457;50.832;4.346;2023-03-01T06:22:58;-0.90;99.90
24338;DHT22;12457;50.832;4.346;2023-03-01T06:25:25;-0.90;99.90
24338;DHT22;12457;50.832;4.346;2023-03-01T06:27:51;-0.80;99.90
24338;DHT22;12457;50.832;4.346;2023-03-01T06:30:20;-0.80;99.90
24338;DHT22;12457;50.832;4.346;2023-03-01T06:32:46;-0.80;99.90
24338;DHT22;12457;50.832;4.346;2023-03-01T06:35:17;-0.80;99.90
24338;DHT22;12457;50.832;4.346;2023-03-01T06:37:44;-0.80;99.90
24338;DHT22;12457;50.832;4.346;2023-03-01T06:40:10;-0.80;99.90
24338;DHT22;12457;50.832;4.346;2023-03-01T06:42:37;-0.80;99.90
24338;DHT22;12457;50.832;4.346;2023-03-01T06:45:03;-0.80;99.90
24338;DHT22;12457;50.832;4.346;2023-03-01T06:47:29;-0.80;99.90
24338;DHT22;12457;50.832;4.346;2023-03-01T06:49:55;-0.80;99.90
24338;DHT22;12457;50.832;4.346;2023-03-01T06:52:21;-0.70;99.90
24338;DHT22;12457;50.832;4.346;2023-03-01T06:54:46;-0.80;99.90
24338;DHT22;12457;50.832;4.346;2023-03-01T06:57:12;-0.70;99.90
24338;DHT22;12457;50.832;4.346;2023-03-01T06:59:37;-0.60;99.90
24338;DHT22;12457;50.832;4.346;2023-03-01T07:02:03;-0.70;99.90
24338;DHT22;12457;50.832;4.346;2023-03-01T07:04:28;-0.60;99.90
24338;DHT22;12457;50.832;4.346;2023-03-01T07:06:56;-0.60;99.90
24338;DHT22;12457;50.832;4.346;2023-03-01T07:09:22;-0.50;99.90
24338;DHT22;12457;50.832;4.346;2023-03-01T07:11:48;-0.40;99.90
24338;DHT22;12457;50.832;4.346;2023-03-01T07:14:13;-0.40;99.90
24338;DHT22;12457;50.832;4.346;2023-03-01T07:16:39;-0.40;99.90
24338;DHT22;12457;50.832;4.346;2023-03-01T07:19:04;-0.30;99.90
24338;DHT22;12457;50.832;4.346;2023-03-01T07:21:31;-0.30;99.90
24338;DHT22;12457;50.832;4.346;2023-03-01T07:23:56;-0.30;99.90
24338;DHT22;12457;50.832;4.346;2023-03-01T07:26:22;-0.30;99.90
24338;DHT22;12457;50.832;4.346;2023-03-01T07:28:47;-0.30;99.90
24338;DHT22;12457;50.832;4.346;2023-03-01T07:31:13;-0.20;99.90
24338;DHT22;12457;50.832;4.346;2023-03-01T07:33:39;-0.30;99.90
24338;DHT22;12457;50.832;4.346;2023-03-01T07:36:10;-0.30;99.90
24338;DHT22;12457;50.832;4.346;2023-03-01T07:38:36;-0.20;99.90
24338;DHT22;12457;50.832;4.346;2023-03-01T07:41:02;-0.20;99.90
24338;DHT22;12457;50.832;4.346;2023-03-01T07:43:29;-0.10;99.90
24338;DHT22;12457;50.832;4.346;2023-03-01T07:45:54;-0.10;99.90
24338;DHT22;12457;50.832;4.346;2023-03-01T07:48:22;0.00;99.90
24338;DHT22;12457;50.832;4.346;2023-03-01T07:50:48;0.00;99.90
24338;DHT22;12457;50.832;4.346;2023-03-01T07:53:13;0.00;99.90
24338;DHT22;12457;50.832;4.346;2023-03-01T07:55:39;0.10;99.90
24338;DHT22;12457;50.832;4.346;2023-03-01T07:58:05;0.10;99.90
24338;DHT22;12457;50.832;4.346;2023-03-01T08:00:33;0.20;99.90
24338;DHT22;12457;50.832;4.346;2023-03-01T08:02:59;0.30;99.90
24338;DHT22;12457;50.832;4.346;2023-03-01T08:05:26;0.30;99.90
24338;DHT22;12457;50.832;4.346;2023-03-01T08:08:00;0.40;99.90
24338;DHT22;12457;50.832;4.346;2023-03-01T08:10:26;0.40;99.90
24338;DHT22;12457;50.832;4.346;2023-03-01T08:12:53;0.50;99.90
24338;DHT22;12457;50.832;4.346;2023-03-01T08:15:18;0.60;99.90
24338;DHT22;12457;50.832;4.346;2023-03-01T08:17:44;0.70;99.90
24338;DHT22;12457;50.832;4.346;2023-03-01T08:20:09;0.70;99.90
24338;DHT22;12457;50.832;4.346;2023-03-01T08:22:37;0.80;99.90
24338;DHT22;12457;50.832;4.346;2023-03-01T08:25:03;0.80;99.90
24338;DHT22;12457;50.832;4.346;2023-03-01T08:27:29;0.90;99.90
24338;DHT22;12457;50.832;4.346;2023-03-01T08:29:54;1.00;99.90
24338;DHT22;12457;50.832;4.346;2023-03-01T08:32:20;1.00;99.90
24338;DHT22;12457;50.832;4.346;2023-03-01T08:34:46;1.10;99.90
24338;DHT22;12457;50.832;4.346;2023-03-01T08:37:11;1.10;99.90
24338;DHT22;12457;50.832;4.346;2023-03-01T08:39:37;1.20;99.90
24338;DHT22;12457;50.832;4.346;2023-03-01T08:42:04;1.20;99.90
24338;DHT22;12457;50.832;4.346;2023-03-01T08:44:32;1.30;99.90
24338;DHT22;12457;50.832;4.346;2023-03-01T08:46:57;1.40;99.90
24338;DHT22;12457;50.832;4.346;2023-03-01T08:49:23;1.40;99.90
24338;DHT22;12457;50.832;4.346;2023-03-01T08:51:49;1.40;99.90
24338;DHT22;12457;50.832;4.346;2023-03-01T08:54:16;1.50;99.90
24338;DHT22;12457;50.832;4.346;2023-03-01T08:56:43;1.50;99.90
24338;DHT22;12457;50.832;4.346;2023-03-01T08:59:10;1.50;99.90
24338;DHT22;12457;50.832;4.346;2023-03-01T09:01:35;1.60;99.90
24338;DHT22;12457;50.832;4.346;2023-03-01T09:04:02;1.60;99.90
24338;DHT22;12457;50.832;4.346;2023-03-01T09:06:29;1.70;99.90
24338;DHT22;12457;50.832;4.346;2023-03-01T09:08:55;1.80;99.90
24338;DHT22;12457;50.832;4.346;2023-03-01T09:11:21;1.80;99.90
24338;DHT22;12457;50.832;4.346;2023-03-01T09:13:47;1.80;99.90
24338;DHT22;12457;50.832;4.346;2023-03-01T09:16:14;1.80;99.90
24338;DHT22;12457;50.832;4.346;2023-03-01T09:18:41;1.80;99.90
24338;DHT22;12457;50.832;4.346;2023-03-01T09:21:09;1.80;99.90
24338;DHT22;12457;50.832;4.346;2023-03-01T09:23:35;1.90;99.90
24338;DHT22;12457;50.832;4.346;2023-03-01T09:26:02;2.00;99.90
24338;DHT22;12457;50.832;4.346;2023-03-01T09:28:28;2.10;99.90
24338;DHT22;12457;50.832;4.346;2023-03-01T09:30:53;2.10;99.90
24338;DHT22;12457;50.832;4.346;2023-03-01T09:33:19;2.20;99.90
24338;DHT22;12457;50.832;4.346;2023-03-01T09:35:44;2.30;99.90
24338;DHT22;12457;50.832;4.346;2023-03-01T09:38:17;2.30;99.90
24338;DHT22;12457;50.832;4.346;2023-03-01T09:40:43;2.30;99.90
24338;DHT22;12457;50.832;4.346;2023-03-01T09:45:46;2.50;99.90
24338;DHT22;12457;50.832;4.346;2023-03-01T09:48:16;2.70;99.90
24338;DHT22;12457;50.832;4.346;2023-03-01T09:50:42;2.70;99.90
24338;DHT22;12457;50.832;4.346;2023-03-01T09:53:21;2.80;99.90
24338;DHT22;12457;50.832;4.346;2023-03-01T09:55:50;2.90;99.90
24338;DHT22;12457;50.832;4.346;2023-03-01T10:01:04;3.10;99.90
24338;DHT22;12457;50.832;4.346;2023-03-01T10:03:35;3.10;99.90
24338;DHT22;12457;50.832;4.346;2023-03-01T10:06:13;3.10;99.90
24338;DHT22;12457;50.832;4.346;2023-03-01T10:11:22;3.40;99.90
24338;DHT22;12457;50.832;4.346;2023-03-01T10:13:59;3.20;99.90
24338;DHT22;12457;50.832;4.346;2023-03-01T10:18:53;3.20;99.90
24338;DHT22;12457;50.832;4.346;2023-03-01T10:21:20;3.20;99.90
24338;DHT22;12457;50.832;4.346;2023-03-01T10:23:51;3.40;99.90
24338;DHT22;12457;50.832;4.346;2023-03-01T10:26:28;3.60;99.90
24338;DHT22;12457;50.832;4.346;2023-03-01T10:29:05;3.60;99.90
24338;DHT22;12457;50.832;4.346;2023-03-01T10:31:43;3.60;99.90
24338;DHT22;12457;50.832;4.346;2023-03-01T10:34:17;3.60;99.90
24338;DHT22;12457;50.832;4.346;2023-03-01T10:36:44;3.70;99.90
24338;DHT22;12457;50.832;4.346;2023-03-01T10:39:14;3.70;99.90
24338;DHT22;12457;50.832;4.346;2023-03-01T10:41:44;3.80;99.90
24338;DHT22;12457;50.832;4.346;2023-03-01T10:44:34;3.90;99.90
24338;DHT22;12457;50.832;4.346;2023-03-01T10:47:00;4.10;99.90
24338;DHT22;12457;50.832;4.346;2023-03-01T10:49:26;4.20;99.90
24338;DHT22;12457;50.832;4.346;2023-03-01T10:51:52;4.20;99.90
24338;DHT22;12457;50.832;4.346;2023-03-01T10:54:20;4.20;99.90
24338;DHT22;12457;50.832;4.346;2023-03-01T10:56:50;4.20;99.90
24338;DHT22;12457;50.832;4.346;2023-03-01T10:59:21;4.40;99.90
24338;DHT22;12457;50.832;4.346;2023-03-01T11:01:49;4.30;99.90
24338;DHT22;12457;50.832;4.346;2023-03-01T11:04:25;4.30;99.90
24338;DHT22;12457;50.832;4.346;2023-03-01T11:06:57;4.30;99.90
24338;DHT22;12457;50.832;4.346;2023-03-01T11:09:24;4.30;99.90
24338;DHT22;12457;50.832;4.346;2023-03-01T11:11:52;4.30;99.90
24338;DHT22;12457;50.832;4.346;2023-03-01T11:14:22;4.50;99.90
24338;DHT22;12457;50.832;4.346;2023-03-01T11:16:57;4.60;99.90
24338;DHT22;12457;50.832;4.346;2023-03-01T11:19:23;4.70;99.90
24338;DHT22;12457;50.832;4.346;2023-03-01T11:24:15;4.60;99.90
24338;DHT22;12457;50.832;4.346;2023-03-01T11:26:42;4.70;99.90
24338;DHT22;12457;50.832;4.346;2023-03-01T11:29:21;4.80;99.90
24338;DHT22;12457;50.832;4.346;2023-03-01T11:31:52;5.00;99.90
24338;DHT22;12457;50.832;4.346;2023-03-01T11:34:21;5.20;99.90
24338;DHT22;12457;50.832;4.346;2023-03-01T11:36:51;5.20;99.90
24338;DHT22;12457;50.832;4.346;2023-03-01T11:39:27;5.20;99.90
24338;DHT22;12457;50.832;4.346;2023-03-01T11:42:02;5.30;99.90
24338;DHT22;12457;50.832;4.346;2023-03-01T11:44:30;5.30;99.90
24338;DHT22;12457;50.832;4.346;2023-03-01T11:52:46;5.30;99.90
24338;DHT22;12457;50.832;4.346;2023-03-01T11:55:17;5.40;99.90
24338;DHT22;12457;50.832;4.346;2023-03-01T12:02:52;5.40;99.90
24338;DHT22;12457;50.832;4.346;2023-03-01T12:05:25;5.40;99.90
24338;DHT22;12457;50.832;4.346;2023-03-01T12:15:34;5.90;99.10
24338;DHT22;12457;50.832;4.346;2023-03-01T12:21:01;5.90;98.10
24338;DHT22;12457;50.832;4.346;2023-03-01T12:36:57;5.90;96.80
24338;DHT22;12457;50.832;4.346;2023-03-01T12:39:41;6.10;97.30
24338;DHT22;12457;50.832;4.346;2023-03-01T12:47:23;6.00;95.20
24338;DHT22;12457;50.832;4.346;2023-03-01T12:49:54;6.00;96.10
24338;DHT22;12457;50.832;4.346;2023-03-01T12:55:31;6.30;95.80
24338;DHT22;12457;50.832;4.346;2023-03-01T13:00:30;6.20;96.20
24338;DHT22;12457;50.832;4.346;2023-03-01T13:05:39;6.30;96.50
24338;DHT22;12457;50.832;4.346;2023-03-01T13:08:27;6.40;96.90
24338;DHT22;12457;50.832;4.346;2023-03-01T13:10:58;6.50;95.60
24338;DHT22;12457;50.832;4.346;2023-03-01T13:13:26;6.70;95.00
24338;DHT22;12457;50.832;4.346;2023-03-01T13:15:52;6.50;94.90
24338;DHT22;12457;50.832;4.346;2023-03-01T13:20:46;6.70;94.50
24338;DHT22;12457;50.832;4.346;2023-03-01T13:28:38;6.60;94.30
24338;DHT22;12457;50.832;4.346;2023-03-01T13:31:05;6.60;94.10
24338;DHT22;12457;50.832;4.346;2023-03-01T13:35:57;6.60;93.00
24338;DHT22;12457;50.832;4.346;2023-03-01T13:38:43;6.70;93.00
24338;DHT22;12457;50.832;4.346;2023-03-01T13:41:10;6.60;92.40
24338;DHT22;12457;50.832;4.346;2023-03-01T13:43:36;6.70;92.20
24338;DHT22;12457;50.832;4.346;2023-03-01T13:46:07;6.70;91.40
24338;DHT22;12457;50.832;4.346;2023-03-01T13:48:33;6.70;91.90
24338;DHT22;12457;50.832;4.346;2023-03-01T13:51:00;6.80;91.70
24338;DHT22;12457;50.832;4.346;2023-03-01T13:53:29;6.80;91.70
24338;DHT22;12457;50.832;4.346;2023-03-01T13:55:57;6.80;91.40
24338;DHT22;12457;50.832;4.346;2023-03-01T14:00:57;6.90;90.60
24338;DHT22;12457;50.832;4.346;2023-03-01T14:03:23;6.90;90.70
24338;DHT22;12457;50.832;4.346;2023-03-01T14:05:59;6.90;91.40
24338;DHT22;12457;50.832;4.346;2023-03-01T14:08:27;7.00;91.40
24338;DHT22;12457;50.832;4.346;2023-03-01T14:10:54;7.00;91.90
24338;DHT22;12457;50.832;4.346;2023-03-01T14:16:08;7.00;91.80
24338;DHT22;12457;50.832;4.346;2023-03-01T14:18:48;7.10;88.00
24338;DHT22;12457;50.832;4.346;2023-03-01T14:21:17;7.10;89.10
24338;DHT22;12457;50.832;4.346;2023-03-01T14:23:43;7.20;87.70
24338;DHT22;12457;50.832;4.346;2023-03-01T14:26:09;7.10;87.90
24338;DHT22;12457;50.832;4.346;2023-03-01T14:28:37;7.00;88.70
24338;DHT22;12457;50.832;4.346;2023-03-01T14:31:35;7.00;88.90
24338;DHT22;12457;50.832;4.346;2023-03-01T14:33:56;7.10;89.40
24338;DHT22;12457;50.832;4.346;2023-03-01T14:36:26;7.10;89.30
24338;DHT22;12457;50.832;4.346;2023-03-01T14:39:16;7.00;89.90
24338;DHT22;12457;50.832;4.346;2023-03-01T14:41:42;7.00;89.40
24338;DHT22;12457;50.832;4.346;2023-03-01T14:44:11;6.90;90.30
24338;DHT22;12457;50.832;4.346;2023-03-01T14:46:38;7.00;90.70
24338;DHT22;12457;50.832;4.346;2023-03-01T14:51:37;7.10;90.90
24338;DHT22;12457;50.832;4.346;2023-03-01T14:54:19;7.20;90.80
24338;DHT22;12457;50.832;4.346;2023-03-01T14:56:46;7.30;89.60
24338;DHT22;12457;50.832;4.346;2023-03-01T14:59:12;7.20;90.20
24338;DHT22;12457;50.832;4.346;2023-03-01T15:01:41;7.10;90.40
24338;DHT22;12457;50.832;4.346;2023-03-01T15:04:08;7.10;90.70
24338;DHT22;12457;50.832;4.346;2023-03-01T15:06:35;7.10;90.70
24338;DHT22;12457;50.832;4.346;2023-03-01T15:09:01;7.20;90.60
24338;DHT22;12457;50.832;4.346;2023-03-01T15:11:33;7.30;90.50
24338;DHT22;12457;50.832;4.346;2023-03-01T15:13:59;7.30;89.60
24338;DHT22;12457;50.832;4.346;2023-03-01T15:16:27;7.20;90.20
24338;DHT22;12457;50.832;4.346;2023-03-01T15:18:57;7.20;89.50
24338;DHT22;12457;50.832;4.346;2023-03-01T15:21:24;7.20;89.70
24338;DHT22;12457;50.832;4.346;2023-03-01T15:23:53;7.20;90.20
24338;DHT22;12457;50.832;4.346;2023-03-01T15:26:37;7.30;88.30
24338;DHT22;12457;50.832;4.346;2023-03-01T15:29:04;7.20;89.10
24338;DHT22;12457;50.832;4.346;2023-03-01T15:31:42;7.20;89.50
24338;DHT22;12457;50.832;4.346;2023-03-01T15:37:04;7.20;90.20
24338;DHT22;12457;50.832;4.346;2023-03-01T15:39:40;7.20;90.70
24338;DHT22;12457;50.832;4.346;2023-03-01T15:44:35;7.00;91.00
24338;DHT22;12457;50.832;4.346;2023-03-01T15:47:04;7.00;91.40
24338;DHT22;12457;50.832;4.346;2023-03-01T15:49:39;6.90;91.40
24338;DHT22;12457;50.832;4.346;2023-03-01T15:52:09;6.90;92.20
24338;DHT22;12457;50.832;4.346;2023-03-01T15:54:38;6.90;92.20
24338;DHT22;12457;50.832;4.346;2023-03-01T15:57:08;7.00;92.00
24338;DHT22;12457;50.832;4.346;2023-03-01T15:59:36;6.90;92.30
24338;DHT22;12457;50.832;4.346;2023-03-01T16:02:01;6.90;91.60
24338;DHT22;12457;50.832;4.346;2023-03-01T16:04:27;6.90;91.20
24338;DHT22;12457;50.832;4.346;2023-03-01T16:06:53;6.90;91.40
24338;DHT22;12457;50.832;4.346;2023-03-01T16:09:22;7.00;91.70
24338;DHT22;12457;50.832;4.346;2023-03-01T16:11:48;7.00;91.80
24338;DHT22;12457;50.832;4.346;2023-03-01T16:14:14;7.00;91.60
24338;DHT22;12457;50.832;4.346;2023-03-01T16:16:41;6.90;91.00
24338;DHT22;12457;50.832;4.346;2023-03-01T16:19:07;6.90;91.20
24338;DHT22;12457;50.832;4.346;2023-03-01T16:21:32;6.80;91.60
24338;DHT22;12457;50.832;4.346;2023-03-01T16:23:58;6.90;91.80
24338;DHT22;12457;50.832;4.346;2023-03-01T16:26:25;6.80;92.00
24338;DHT22;12457;50.832;4.346;2023-03-01T16:28:53;6.80;92.20
24338;DHT22;12457;50.832;4.346;2023-03-01T16:31:19;6.70;92.60
24338;DHT22;12457;50.832;4.346;2023-03-01T16:33:45;6.70;92.80
24338;DHT22;12457;50.832;4.346;2023-03-01T16:36:15;6.70;93.00
24338;DHT22;12457;50.832;4.346;2023-03-01T16:38:41;6.60;93.60
24338;DHT22;12457;50.832;4.346;2023-03-01T16:43:56;6.60;93.80
24338;DHT22;12457;50.832;4.346;2023-03-01T16:46:24;6.70;94.10
24338;DHT22;12457;50.832;4.346;2023-03-01T16:48:50;6.70;94.00
24338;DHT22;12457;50.832;4.346;2023-03-01T16:51:15;6.50;94.30
24338;DHT22;12457;50.832;4.346;2023-03-01T16:53:41;6.50;94.40
24338;DHT22;12457;50.832;4.346;2023-03-01T16:56:08;6.40;94.90
24338;DHT22;12457;50.832;4.346;2023-03-01T16:58:34;6.40;95.00
24338;DHT22;12457;50.832;4.346;2023-03-01T17:01:21;6.30;95.30
24338;DHT22;12457;50.832;4.346;2023-03-01T17:03:49;6.20;95.70
24338;DHT22;12457;50.832;4.346;2023-03-01T17:06:16;6.10;96.10
24338;DHT22;12457;50.832;4.346;2023-03-01T17:08:42;6.20;96.50
24338;DHT22;12457;50.832;4.346;2023-03-01T17:11:14;6.10;96.70
24338;DHT22;12457;50.832;4.346;2023-03-01T17:13:40;6.20;96.70
24338;DHT22;12457;50.832;4.346;2023-03-01T17:16:07;6.10;97.10
24338;DHT22;12457;50.832;4.346;2023-03-01T17:18:34;6.00;97.40
24338;DHT22;12457;50.832;4.346;2023-03-01T17:21:00;6.00;97.60
24338;DHT22;12457;50.832;4.346;2023-03-01T17:23:26;5.90;97.90
24338;DHT22;12457;50.832;4.346;2023-03-01T17:25:52;5.90;98.20
24338;DHT22;12457;50.832;4.346;2023-03-01T17:28:20;5.90;98.30
24338;DHT22;12457;50.832;4.346;2023-03-01T17:30:46;5.80;98.50